createdAt,value
2023-01-23T00:00:28.763Z,1.09
2023-01-23T00:01:01.433Z,1.09
2023-01-23T00:01:34.160Z,1.11
2023-01-23T00:02:06.875Z,1.11
2023-01-23T00:02:39.540Z,1.11
2023-01-23T00:03:12.209Z,1.09
2023-01-23T00:03:44.974Z,1.11
2023-01-23T00:04:17.724Z,1.11
2023-01-23T00:04:48.728Z,1.11
2023-01-23T00:05:19.824Z,1.11
2023-01-23T00:05:52.499Z,1.14
2023-01-23T00:06:25.301Z,1.12
2023-01-23T00:06:57.964Z,1.12
2023-01-23T00:07:30.635Z,1.14
2023-01-23T00:08:03.300Z,1.14
2023-01-23T00:08:35.990Z,1.15
2023-01-23T00:09:08.662Z,1.14
2023-01-23T00:09:41.360Z,1.12
2023-01-23T00:10:14.013Z,1.14
2023-01-23T00:10:46.682Z,1.09
2023-01-23T00:11:19.383Z,1.09
2023-01-23T00:11:52.062Z,1.08
2023-01-23T00:12:24.732Z,1.09
2023-01-23T00:12:57.417Z,1.11
2023-01-23T00:13:30.087Z,1.09
2023-01-23T00:14:02.771Z,1.09
2023-01-23T00:14:35.438Z,1.08
2023-01-23T00:15:08.112Z,1.08
2023-01-23T00:15:40.926Z,1.08
2023-01-23T00:16:13.652Z,1.09
2023-01-23T00:16:46.407Z,1.08
2023-01-23T00:17:19.080Z,1.08
2023-01-23T00:17:51.749Z,1.09
2023-01-23T00:18:24.413Z,1.08
2023-01-23T00:18:57.096Z,1.09
2023-01-23T00:19:29.757Z,1.08
2023-01-23T00:20:02.439Z,1.08
2023-01-23T00:20:35.104Z,1.09
2023-01-23T00:21:07.777Z,1.08
2023-01-23T00:21:40.584Z,1.09
2023-01-23T00:22:14.393Z,1.09
2023-01-23T00:22:40.543Z,1.06
2023-01-23T00:23:13.227Z,1.09
2023-01-23T00:23:45.900Z,1.06
2023-01-23T00:24:16.990Z,1.09
2023-01-23T00:24:49.669Z,1.08
2023-01-23T00:25:22.349Z,1.11
2023-01-23T00:25:55.023Z,1.09
2023-01-23T00:26:27.673Z,1.09
2023-01-23T00:27:00.354Z,1.09
2023-01-23T00:27:33.022Z,1.06
2023-01-23T00:28:05.695Z,1.08
2023-01-23T00:28:38.374Z,1.08
2023-01-23T00:29:11.044Z,1.09
2023-01-23T00:29:43.718Z,1.09
2023-01-23T00:30:16.473Z,1.09
2023-01-23T00:30:49.268Z,1.09
2023-01-23T00:31:22.174Z,1.09
2023-01-23T00:31:54.948Z,1.09
2023-01-23T00:32:27.600Z,1.08
2023-01-23T00:33:00.281Z,1.08
2023-01-23T00:33:32.974Z,1.08
2023-01-23T00:34:05.643Z,1.08
2023-01-23T00:34:38.311Z,1.09
2023-01-23T00:35:10.984Z,1.09
2023-01-23T00:35:43.664Z,1.12
2023-01-23T00:36:16.322Z,1.12
2023-01-23T00:36:49.128Z,1.11
2023-01-23T00:37:21.754Z,1.12
2023-01-23T00:37:54.470Z,1.12
2023-01-23T00:38:27.135Z,1.12
2023-01-23T00:38:59.821Z,1.12
2023-01-23T00:39:32.472Z,1.12
2023-01-23T00:40:05.140Z,1.11
2023-01-23T00:40:37.821Z,1.08
2023-01-23T00:41:10.490Z,1.09
2023-01-23T00:41:43.157Z,1.09
2023-01-23T00:42:15.850Z,1.12
2023-01-23T00:42:48.562Z,1.11
2023-01-23T00:43:21.214Z,1.06
2023-01-23T00:43:53.872Z,1.08
2023-01-23T00:44:26.537Z,1.11
2023-01-23T00:44:59.204Z,1.09
2023-01-23T00:45:31.885Z,1.08
2023-01-23T00:46:04.578Z,1.09
2023-01-23T00:46:37.302Z,1.11
2023-01-23T00:47:09.961Z,1.11
2023-01-23T00:47:42.628Z,1.11
2023-01-23T00:48:15.299Z,1.11
2023-01-23T00:48:47.977Z,1.09
2023-01-23T00:49:22.608Z,1.09
2023-01-23T00:49:49.945Z,1.11
2023-01-23T00:50:22.620Z,1.08
2023-01-23T00:50:55.363Z,1.09
2023-01-23T00:51:28.106Z,1.08
2023-01-23T00:52:00.910Z,1.08
2023-01-23T00:52:33.540Z,1.06
2023-01-23T00:53:06.212Z,1.06
2023-01-23T00:53:38.884Z,1.06
2023-01-23T00:54:11.566Z,1.08
2023-01-23T00:54:44.231Z,1.06
2023-01-23T00:55:16.908Z,1.09
2023-01-23T00:55:49.601Z,1.06
2023-01-23T00:56:22.246Z,1.06
2023-01-23T00:56:54.940Z,1.08
2023-01-23T00:57:27.608Z,1.08
2023-01-23T00:58:00.271Z,1.06
2023-01-23T00:58:32.949Z,1.08
2023-01-23T00:59:05.620Z,1.08
2023-01-23T00:59:38.290Z,1.08
2023-01-23T01:00:10.964Z,1.08
2023-01-23T01:00:43.625Z,1.09
2023-01-23T01:01:16.347Z,1.09
2023-01-23T01:01:49.131Z,1.08
2023-01-23T01:02:21.873Z,1.09
2023-01-23T01:02:54.613Z,1.09
2023-01-23T01:03:27.286Z,1.08
2023-01-23T01:03:59.948Z,1.09
2023-01-23T01:04:32.619Z,1.09
2023-01-23T01:05:05.288Z,1.09
2023-01-23T01:05:37.956Z,1.09
2023-01-23T01:06:10.658Z,1.08
2023-01-23T01:06:43.302Z,1.08
2023-01-23T01:07:16.118Z,1.09
2023-01-23T01:07:48.740Z,1.11
2023-01-23T01:08:21.435Z,1.11
2023-01-23T01:08:54.120Z,1.11
2023-01-23T01:09:26.795Z,1.12
2023-01-23T01:09:59.469Z,1.08
2023-01-23T01:10:32.150Z,1.08
2023-01-23T01:11:04.829Z,1.09
2023-01-23T01:11:37.486Z,1.08
2023-01-23T01:12:10.160Z,1.11
2023-01-23T01:12:42.826Z,1.09
2023-01-23T01:13:15.497Z,1.09
2023-01-23T01:13:48.174Z,1.08
2023-01-23T01:14:20.842Z,1.09
2023-01-23T01:14:53.550Z,1.09
2023-01-23T01:15:26.208Z,1.11
2023-01-23T01:15:58.926Z,1.06
2023-01-23T01:16:31.623Z,1.08
2023-01-23T01:17:04.294Z,1.06
2023-01-23T01:17:36.956Z,1.09
2023-01-23T01:18:08.074Z,1.09
2023-01-23T01:18:40.719Z,1.08
2023-01-23T01:19:13.388Z,1.08
2023-01-23T01:19:46.078Z,1.06
2023-01-23T01:20:19.069Z,1.06
2023-01-23T01:20:45.385Z,1.08
2023-01-23T01:21:18.058Z,1.08
2023-01-23T01:21:50.733Z,1.06
2023-01-23T01:22:23.521Z,1.06
2023-01-23T01:22:56.154Z,1.05
2023-01-23T01:23:27.237Z,1.05
2023-01-23T01:23:59.905Z,1.06
2023-01-23T01:24:32.578Z,1.05
2023-01-23T01:25:05.244Z,1.05
2023-01-23T01:25:37.923Z,1.05
2023-01-23T01:26:10.582Z,1.05
2023-01-23T01:26:43.292Z,1.06
2023-01-23T01:27:15.942Z,1.04
2023-01-23T01:27:48.624Z,1.06
2023-01-23T01:28:21.291Z,1.06
2023-01-23T01:28:53.964Z,1.05
2023-01-23T01:29:26.631Z,1.06
2023-01-23T01:29:59.299Z,1.06
2023-01-23T01:30:31.981Z,1.05
2023-01-23T01:31:04.785Z,1.06
2023-01-23T01:31:37.601Z,1.08
2023-01-23T01:32:10.291Z,1.06
2023-01-23T01:32:42.963Z,1.05
2023-01-23T01:33:15.632Z,1.06
2023-01-23T01:33:48.311Z,1.08
2023-01-23T01:34:23.491Z,1.05
2023-01-23T01:34:52.064Z,1.06
2023-01-23T01:35:24.730Z,1.08
2023-01-23T01:35:57.393Z,1.06
2023-01-23T01:36:30.082Z,1.06
2023-01-23T01:37:02.757Z,1.06
2023-01-23T01:37:35.543Z,1.08
2023-01-23T01:38:08.185Z,1.08
2023-01-23T01:38:40.843Z,1.05
2023-01-23T01:39:13.516Z,1.06
2023-01-23T01:39:46.185Z,1.08
2023-01-23T01:40:19.122Z,1.08
2023-01-23T01:40:45.421Z,1.08
2023-01-23T01:41:18.111Z,1.08
2023-01-23T01:41:50.814Z,1.08
2023-01-23T01:42:23.462Z,1.06
2023-01-23T01:42:56.132Z,1.08
2023-01-23T01:43:28.817Z,1.08
2023-01-23T01:44:01.487Z,1.11
2023-01-23T01:44:34.169Z,1.09
2023-01-23T01:45:06.826Z,1.09
2023-01-23T01:45:39.509Z,1.08
2023-01-23T01:46:12.278Z,1.06
2023-01-23T01:46:44.968Z,1.06
2023-01-23T01:47:17.639Z,1.08
2023-01-23T01:47:50.317Z,1.11
2023-01-23T01:48:23.023Z,1.09
2023-01-23T01:48:55.685Z,1.12
2023-01-23T01:49:28.371Z,1.11
2023-01-23T01:50:01.033Z,1.12
2023-01-23T01:50:33.712Z,1.14
2023-01-23T01:51:06.437Z,1.12
2023-01-23T01:51:39.090Z,1.12
2023-01-23T01:52:11.778Z,1.12
2023-01-23T01:52:44.589Z,1.11
2023-01-23T01:53:17.228Z,1.09
2023-01-23T01:53:49.894Z,1.11
2023-01-23T01:54:22.592Z,1.08
2023-01-23T01:54:55.256Z,1.09
2023-01-23T01:55:27.934Z,1.09
2023-01-23T01:56:00.606Z,1.08
2023-01-23T01:56:33.278Z,1.11
2023-01-23T01:57:05.986Z,1.12
2023-01-23T01:57:38.647Z,1.12
2023-01-23T01:58:11.307Z,1.12
2023-01-23T01:58:43.974Z,1.11
2023-01-23T01:59:16.646Z,1.11
2023-01-23T01:59:49.326Z,1.12
2023-01-23T02:00:22.390Z,1.12
2023-01-23T02:00:48.877Z,1.11
2023-01-23T02:01:21.545Z,1.09
2023-01-23T02:01:54.317Z,1.06
2023-01-23T02:02:26.982Z,1.09
2023-01-23T02:02:59.655Z,1.09
2023-01-23T02:03:32.349Z,1.08
2023-01-23T02:04:04.995Z,1.11
2023-01-23T02:04:37.683Z,1.11
2023-01-23T02:05:10.359Z,1.11
2023-01-23T02:05:43.067Z,1.14
2023-01-23T02:06:15.738Z,1.14
2023-01-23T02:06:48.395Z,1.11
2023-01-23T02:07:21.067Z,1.11
2023-01-23T02:07:53.858Z,1.11
2023-01-23T02:08:26.483Z,1.09
2023-01-23T02:08:59.163Z,1.11
2023-01-23T02:09:31.831Z,1.08
2023-01-23T02:10:04.500Z,1.08
2023-01-23T02:10:37.171Z,1.09
2023-01-23T02:11:09.856Z,1.08
2023-01-23T02:11:42.519Z,1.09
2023-01-23T02:12:15.206Z,1.06
2023-01-23T02:12:47.868Z,1.05
2023-01-23T02:13:20.548Z,1.05
2023-01-23T02:13:53.237Z,1.06
2023-01-23T02:14:25.940Z,1.05
2023-01-23T02:14:58.581Z,1.06
2023-01-23T02:15:31.289Z,1.06
2023-01-23T02:16:03.971Z,1.06
2023-01-23T02:16:36.615Z,1.06
2023-01-23T02:17:09.285Z,1.05
2023-01-23T02:17:41.966Z,1.05
2023-01-23T02:18:14.628Z,1.05
2023-01-23T02:18:47.294Z,1.05
2023-01-23T02:19:19.974Z,1.05
2023-01-23T02:19:52.646Z,1.04
2023-01-23T02:20:25.334Z,1.04
2023-01-23T02:20:57.999Z,1.04
2023-01-23T02:21:30.670Z,1.06
2023-01-23T02:22:03.356Z,1.05
2023-01-23T02:22:36.044Z,1.04
2023-01-23T02:23:08.837Z,1.05
2023-01-23T02:23:41.464Z,1.05
2023-01-23T02:24:12.576Z,1.08
2023-01-23T02:24:45.250Z,1.06
2023-01-23T02:25:17.923Z,1.06
2023-01-23T02:25:50.596Z,1.06
2023-01-23T02:26:23.271Z,1.06
2023-01-23T02:26:55.941Z,1.06
2023-01-23T02:27:28.612Z,1.06
2023-01-23T02:28:01.317Z,1.08
2023-01-23T02:28:33.956Z,1.09
2023-01-23T02:29:06.614Z,1.06
2023-01-23T02:29:39.293Z,1.06
2023-01-23T02:30:11.966Z,1.06
2023-01-23T02:30:44.672Z,1.08
2023-01-23T02:31:15.865Z,1.08
2023-01-23T02:31:48.558Z,1.06
2023-01-23T02:32:21.243Z,1.08
2023-01-23T02:32:53.912Z,1.08
2023-01-23T02:33:26.589Z,1.06
2023-01-23T02:33:59.271Z,1.08
2023-01-23T02:34:31.937Z,1.06
2023-01-23T02:35:04.607Z,1.05
2023-01-23T02:35:37.268Z,1.05
2023-01-23T02:36:09.939Z,1.05
2023-01-23T02:36:42.601Z,1.08
2023-01-23T02:37:15.292Z,1.09
2023-01-23T02:37:47.967Z,1.08
2023-01-23T02:38:20.757Z,1.06
2023-01-23T02:38:53.374Z,1.05
2023-01-23T02:39:26.052Z,1.06
2023-01-23T02:39:58.753Z,1.06
2023-01-23T02:40:31.439Z,1.05
2023-01-23T02:41:04.108Z,1.06
2023-01-23T02:41:36.782Z,1.08
2023-01-23T02:42:09.480Z,1.08
2023-01-23T02:42:42.156Z,1.05
2023-01-23T02:43:14.828Z,1.08
2023-01-23T02:43:47.523Z,1.06
2023-01-23T02:44:18.587Z,1.06
2023-01-23T02:44:51.258Z,1.08
2023-01-23T02:45:24.070Z,1.08
2023-01-23T02:45:56.785Z,1.06
2023-01-23T02:46:29.511Z,1.08
2023-01-23T02:47:02.213Z,1.08
2023-01-23T02:47:34.875Z,1.06
2023-01-23T02:48:07.542Z,1.08
2023-01-23T02:48:40.258Z,1.06
2023-01-23T02:49:12.898Z,1.05
2023-01-23T02:49:39.835Z,1.08
2023-01-23T02:50:12.527Z,1.08
2023-01-23T02:50:45.178Z,1.08
2023-01-23T02:51:17.930Z,1.09
2023-01-23T02:51:50.612Z,1.08
2023-01-23T02:52:17.285Z,1.09
2023-01-23T02:52:50.002Z,1.09
2023-01-23T02:53:22.671Z,1.09
2023-01-23T02:53:55.458Z,1.11
2023-01-23T02:54:28.094Z,1.11
2023-01-23T02:55:00.787Z,1.09
2023-01-23T02:55:33.440Z,1.09
2023-01-23T02:56:06.134Z,1.08
2023-01-23T02:56:38.798Z,1.08
2023-01-23T02:57:11.495Z,1.08
2023-01-23T02:57:44.161Z,1.08
2023-01-23T02:58:16.827Z,1.08
2023-01-23T02:58:49.501Z,1.08
2023-01-23T02:59:22.180Z,1.08
2023-01-23T02:59:54.863Z,1.06
2023-01-23T03:00:27.532Z,1.08
2023-01-23T03:01:00.223Z,1.06
2023-01-23T03:01:32.900Z,1.11
2023-01-23T03:02:05.644Z,1.11
2023-01-23T03:02:38.271Z,1.14
2023-01-23T03:03:10.956Z,1.12
2023-01-23T03:03:43.618Z,1.12
2023-01-23T03:04:16.299Z,1.14
2023-01-23T03:04:48.972Z,1.12
2023-01-23T03:05:21.638Z,1.14
2023-01-23T03:05:54.299Z,1.11
2023-01-23T03:06:26.979Z,1.09
2023-01-23T03:06:59.656Z,1.09
2023-01-23T03:07:32.331Z,1.11
2023-01-23T03:08:05.005Z,1.11
2023-01-23T03:08:37.671Z,1.09
2023-01-23T03:09:10.463Z,1.08
2023-01-23T03:09:43.099Z,1.08
2023-01-23T03:10:15.784Z,1.11
2023-01-23T03:10:48.444Z,1.08
2023-01-23T03:11:21.112Z,1.09
2023-01-23T03:11:53.798Z,1.05
2023-01-23T03:12:26.461Z,1.06
2023-01-23T03:12:59.158Z,1.06
2023-01-23T03:13:31.829Z,1.05
2023-01-23T03:14:04.499Z,1.08
2023-01-23T03:14:37.163Z,1.04
2023-01-23T03:15:09.829Z,1.05
2023-01-23T03:15:42.492Z,1.05
2023-01-23T03:16:15.218Z,1.05
2023-01-23T03:16:47.925Z,1.05
2023-01-23T03:17:20.619Z,1.05
2023-01-23T03:17:53.297Z,1.05
2023-01-23T03:18:25.977Z,1.04
2023-01-23T03:18:58.658Z,1.05
2023-01-23T03:19:31.340Z,1.05
2023-01-23T03:20:04.010Z,1.05
2023-01-23T03:20:36.685Z,1.05
2023-01-23T03:21:09.384Z,1.05
2023-01-23T03:21:42.051Z,1.04
2023-01-23T03:22:14.744Z,1.02
2023-01-23T03:22:47.415Z,1.05
2023-01-23T03:23:20.094Z,1.02
2023-01-23T03:23:52.757Z,1.04
2023-01-23T03:24:25.550Z,1.00
2023-01-23T03:24:58.185Z,1.02
2023-01-23T03:25:30.855Z,1.02
2023-01-23T03:26:03.524Z,1.02
2023-01-23T03:26:36.250Z,1.02
2023-01-23T03:27:08.917Z,1.04
2023-01-23T03:27:41.584Z,1.04
2023-01-23T03:28:14.274Z,1.04
2023-01-23T03:28:46.934Z,1.04
2023-01-23T03:29:19.603Z,1.04
2023-01-23T03:29:52.279Z,1.04
2023-01-23T03:30:24.943Z,1.06
2023-01-23T03:30:57.690Z,1.04
2023-01-23T03:31:30.406Z,1.05
2023-01-23T03:32:03.066Z,1.06
2023-01-23T03:32:34.157Z,1.05
2023-01-23T03:33:06.809Z,1.05
2023-01-23T03:33:39.477Z,1.04
2023-01-23T03:34:12.157Z,1.04
2023-01-23T03:34:44.827Z,1.02
2023-01-23T03:35:17.503Z,1.04
2023-01-23T03:35:50.185Z,1.06
2023-01-23T03:36:22.857Z,1.06
2023-01-23T03:36:55.537Z,1.05
2023-01-23T03:37:28.242Z,1.05
2023-01-23T03:38:00.902Z,1.05
2023-01-23T03:38:33.576Z,1.06
2023-01-23T03:39:06.253Z,1.05
2023-01-23T03:39:39.041Z,1.05
2023-01-23T03:40:11.680Z,1.08
2023-01-23T03:40:44.352Z,1.08
2023-01-23T03:41:15.437Z,1.08
2023-01-23T03:41:48.132Z,1.09
2023-01-23T03:42:20.799Z,1.08
2023-01-23T03:42:53.461Z,1.08
2023-01-23T03:43:26.135Z,1.06
2023-01-23T03:43:58.796Z,1.08
2023-01-23T03:44:31.463Z,1.08
2023-01-23T03:45:04.137Z,1.09
2023-01-23T03:45:36.940Z,1.08
2023-01-23T03:46:09.588Z,1.08
2023-01-23T03:46:42.276Z,1.06
2023-01-23T03:47:14.937Z,1.08
2023-01-23T03:47:47.612Z,1.06
2023-01-23T03:48:20.293Z,1.08
2023-01-23T03:48:52.951Z,1.08
2023-01-23T03:49:25.613Z,1.06
2023-01-23T03:49:58.286Z,1.08
2023-01-23T03:50:30.948Z,1.06
2023-01-23T03:51:03.701Z,1.06
2023-01-23T03:51:36.378Z,1.06
2023-01-23T03:52:09.050Z,1.06
2023-01-23T03:52:41.711Z,1.08
2023-01-23T03:53:14.380Z,1.06
2023-01-23T03:53:47.055Z,1.08
2023-01-23T03:54:19.757Z,1.06
2023-01-23T03:54:52.553Z,1.06
2023-01-23T03:55:25.207Z,1.06
2023-01-23T03:55:57.870Z,1.06
2023-01-23T03:56:30.560Z,1.06
2023-01-23T03:57:03.246Z,1.06
2023-01-23T03:57:35.935Z,1.08
2023-01-23T03:58:08.603Z,1.06
2023-01-23T03:58:41.270Z,1.08
2023-01-23T03:59:13.959Z,1.06
2023-01-23T03:59:46.622Z,1.09
2023-01-23T04:00:19.737Z,1.08
2023-01-23T04:00:46.012Z,1.06
2023-01-23T04:01:18.760Z,1.08
2023-01-23T04:01:51.407Z,1.06
2023-01-23T04:02:24.206Z,1.08
2023-01-23T04:02:56.937Z,1.09
2023-01-23T04:03:29.590Z,1.08
2023-01-23T04:04:02.288Z,1.08
2023-01-23T04:04:34.929Z,1.11
2023-01-23T04:05:07.590Z,1.09
2023-01-23T04:05:40.252Z,1.11
2023-01-23T04:06:12.924Z,1.08
2023-01-23T04:06:45.608Z,1.08
2023-01-23T04:07:18.307Z,1.09
2023-01-23T04:07:50.999Z,1.09
2023-01-23T04:08:23.695Z,1.09
2023-01-23T04:08:56.332Z,1.11
2023-01-23T04:09:28.996Z,1.09
2023-01-23T04:10:01.795Z,1.08
2023-01-23T04:10:34.430Z,1.08
2023-01-23T04:11:07.105Z,1.08
2023-01-23T04:11:39.772Z,1.09
2023-01-23T04:12:10.881Z,1.08
2023-01-23T04:12:43.588Z,1.09
2023-01-23T04:13:16.235Z,1.08
2023-01-23T04:13:48.907Z,1.09
2023-01-23T04:14:21.813Z,1.08
2023-01-23T04:14:54.482Z,1.08
2023-01-23T04:15:27.178Z,1.09
2023-01-23T04:15:59.838Z,1.11
2023-01-23T04:16:32.536Z,1.08
2023-01-23T04:17:05.213Z,1.08
2023-01-23T04:17:38.499Z,1.08
2023-01-23T04:18:05.747Z,1.09
2023-01-23T04:18:38.432Z,1.08
2023-01-23T04:19:11.106Z,1.08
2023-01-23T04:19:43.763Z,1.09
2023-01-23T04:20:16.432Z,1.08
2023-01-23T04:20:49.109Z,1.06
2023-01-23T04:21:21.797Z,1.09
2023-01-23T04:21:54.466Z,1.06
2023-01-23T04:22:27.160Z,1.08
2023-01-23T04:22:59.835Z,1.08
2023-01-23T04:23:32.502Z,1.06
2023-01-23T04:24:05.166Z,1.08
2023-01-23T04:24:37.838Z,1.08
2023-01-23T04:25:10.633Z,1.08
2023-01-23T04:25:43.267Z,1.08
2023-01-23T04:26:15.929Z,1.08
2023-01-23T04:26:48.615Z,1.08
2023-01-23T04:27:21.285Z,1.06
2023-01-23T04:27:53.978Z,1.08
2023-01-23T04:28:26.664Z,1.09
2023-01-23T04:28:59.323Z,1.09
2023-01-23T04:29:31.999Z,1.11
2023-01-23T04:30:04.679Z,1.12
2023-01-23T04:30:37.433Z,1.14
2023-01-23T04:31:10.191Z,1.14
2023-01-23T04:31:43.015Z,1.14
2023-01-23T04:32:15.707Z,1.11
2023-01-23T04:32:48.375Z,1.12
2023-01-23T04:33:21.046Z,1.11
2023-01-23T04:33:53.728Z,1.11
2023-01-23T04:34:26.412Z,1.12
2023-01-23T04:34:59.074Z,1.14
2023-01-23T04:35:31.770Z,1.12
2023-01-23T04:36:04.467Z,1.14
2023-01-23T04:36:37.107Z,1.15
2023-01-23T04:37:09.788Z,1.15
2023-01-23T04:37:42.465Z,1.16
2023-01-23T04:38:15.129Z,1.16
2023-01-23T04:38:47.801Z,1.16
2023-01-23T04:39:20.472Z,1.18
2023-01-23T04:39:53.159Z,1.15
2023-01-23T04:40:25.938Z,1.14
2023-01-23T04:40:58.590Z,1.15
2023-01-23T04:41:31.257Z,1.12
2023-01-23T04:42:03.962Z,1.12
2023-01-23T04:42:36.612Z,1.11
2023-01-23T04:43:09.284Z,1.11
2023-01-23T04:43:41.946Z,1.11
2023-01-23T04:44:14.617Z,1.09
2023-01-23T04:44:47.294Z,1.09
2023-01-23T04:45:19.965Z,1.11
2023-01-23T04:45:52.726Z,1.11
2023-01-23T04:46:25.478Z,1.12
2023-01-23T04:46:58.158Z,1.14
2023-01-23T04:47:30.837Z,1.14
2023-01-23T04:48:03.511Z,1.14
2023-01-23T04:48:36.178Z,1.12
2023-01-23T04:49:08.861Z,1.14
2023-01-23T04:49:41.546Z,1.12
2023-01-23T04:50:14.225Z,1.11
2023-01-23T04:50:46.901Z,1.14
2023-01-23T04:51:19.622Z,1.12
2023-01-23T04:51:52.302Z,1.08
2023-01-23T04:52:24.988Z,1.08
2023-01-23T04:52:57.651Z,1.09
2023-01-23T04:53:30.329Z,1.08
2023-01-23T04:54:03.006Z,1.06
2023-01-23T04:54:35.675Z,1.08
2023-01-23T04:55:08.343Z,1.09
2023-01-23T04:55:41.136Z,1.06
2023-01-23T04:56:13.773Z,1.06
2023-01-23T04:56:46.443Z,1.04
2023-01-23T04:57:19.135Z,1.05
2023-01-23T04:57:51.806Z,1.06
2023-01-23T04:58:24.472Z,1.05
2023-01-23T04:58:57.170Z,1.08
2023-01-23T04:59:29.818Z,1.09
2023-01-23T05:00:02.490Z,1.11
2023-01-23T05:00:35.167Z,1.09
2023-01-23T05:01:07.907Z,1.11
2023-01-23T05:01:40.574Z,1.11
2023-01-23T05:02:13.336Z,1.09
2023-01-23T05:02:46.072Z,1.08
2023-01-23T05:03:18.748Z,1.08
2023-01-23T05:03:51.414Z,1.06
2023-01-23T05:04:24.086Z,1.08
2023-01-23T05:04:56.753Z,1.06
2023-01-23T05:05:29.493Z,1.06
2023-01-23T05:06:02.189Z,1.05
2023-01-23T05:06:34.823Z,1.05
2023-01-23T05:07:07.507Z,1.06
2023-01-23T05:07:40.179Z,1.04
2023-01-23T05:08:12.847Z,1.04
2023-01-23T05:08:45.517Z,1.00
2023-01-23T05:09:18.195Z,1.04
2023-01-23T05:09:50.864Z,1.04
2023-01-23T05:10:23.533Z,1.02
2023-01-23T05:10:56.325Z,1.00
2023-01-23T05:11:28.948Z,1.00
2023-01-23T05:12:01.639Z,1.02
2023-01-23T05:12:34.392Z,1.04
2023-01-23T05:13:07.040Z,1.02
2023-01-23T05:13:39.716Z,1.05
2023-01-23T05:14:12.374Z,1.02
2023-01-23T05:14:45.058Z,1.00
2023-01-23T05:15:17.717Z,1.02
2023-01-23T05:15:50.456Z,1.02
2023-01-23T05:16:23.135Z,1.00
2023-01-23T05:16:55.836Z,1.00
2023-01-23T05:17:28.500Z,1.02
2023-01-23T05:18:01.278Z,1.00
2023-01-23T05:18:33.945Z,1.00
2023-01-23T05:19:06.612Z,0.98
2023-01-23T05:19:39.282Z,1.00
2023-01-23T05:20:11.979Z,1.02
2023-01-23T05:20:44.636Z,0.98
2023-01-23T05:21:17.305Z,1.00
2023-01-23T05:21:49.999Z,1.00
2023-01-23T05:22:22.671Z,1.00
2023-01-23T05:22:57.579Z,1.00
2023-01-23T05:23:24.512Z,1.00
2023-01-23T05:23:57.186Z,1.02
2023-01-23T05:24:29.863Z,1.05
2023-01-23T05:25:02.542Z,1.04
2023-01-23T05:25:35.213Z,1.05
2023-01-23T05:26:07.994Z,1.04
2023-01-23T05:26:40.623Z,1.05
2023-01-23T05:27:13.316Z,1.05
2023-01-23T05:27:46.000Z,1.04
2023-01-23T05:28:18.707Z,1.04
2023-01-23T05:28:51.361Z,1.04
2023-01-23T05:29:24.035Z,1.02
2023-01-23T05:29:56.710Z,1.04
2023-01-23T05:30:29.401Z,1.05
2023-01-23T05:31:02.169Z,1.04
2023-01-23T05:31:34.965Z,1.04
2023-01-23T05:32:07.690Z,1.08
2023-01-23T05:32:40.349Z,1.06
2023-01-23T05:33:13.019Z,1.06
2023-01-23T05:33:45.680Z,1.05
2023-01-23T05:34:18.352Z,1.05
2023-01-23T05:34:49.452Z,1.08
2023-01-23T05:35:22.129Z,1.06
2023-01-23T05:35:54.786Z,1.08
2023-01-23T05:36:27.455Z,1.06
2023-01-23T05:37:00.144Z,1.05
2023-01-23T05:37:32.823Z,1.06
2023-01-23T05:38:05.488Z,1.08
2023-01-23T05:38:38.163Z,1.05
2023-01-23T05:39:10.828Z,1.06
2023-01-23T05:39:43.506Z,1.05
2023-01-23T05:40:16.184Z,1.04
2023-01-23T05:40:48.851Z,1.04
2023-01-23T05:41:20.048Z,1.04
2023-01-23T05:41:52.702Z,1.04
2023-01-23T05:42:25.403Z,1.04
2023-01-23T05:42:56.475Z,1.02
2023-01-23T05:43:29.143Z,0.98
2023-01-23T05:44:01.819Z,1.02
2023-01-23T05:44:34.479Z,0.98
2023-01-23T05:45:07.176Z,1.00
2023-01-23T05:45:39.850Z,0.96
2023-01-23T05:46:12.555Z,0.97
2023-01-23T05:46:45.201Z,0.98
2023-01-23T05:47:17.912Z,0.97
2023-01-23T05:47:50.572Z,0.97
2023-01-23T05:48:23.245Z,0.97
2023-01-23T05:48:55.902Z,0.97
2023-01-23T05:49:28.572Z,0.96
2023-01-23T05:50:01.300Z,0.97
2023-01-23T05:50:34.591Z,0.97
2023-01-23T05:51:00.857Z,0.96
2023-01-23T05:51:33.504Z,0.97
2023-01-23T05:52:06.195Z,0.96
2023-01-23T05:52:38.857Z,0.96
2023-01-23T05:53:11.530Z,0.94
2023-01-23T05:53:44.206Z,0.94
2023-01-23T05:54:16.869Z,0.94
2023-01-23T05:54:49.540Z,0.94
2023-01-23T05:55:22.223Z,0.93
2023-01-23T05:55:54.889Z,0.94
2023-01-23T05:56:27.671Z,0.96
2023-01-23T05:57:00.372Z,0.97
2023-01-23T05:57:33.028Z,0.96
2023-01-23T05:58:05.695Z,0.97
2023-01-23T05:58:38.363Z,0.97
2023-01-23T05:59:11.033Z,0.94
2023-01-23T05:59:43.699Z,0.94
2023-01-23T06:00:16.388Z,0.94
2023-01-23T06:00:49.053Z,0.94
2023-01-23T06:01:21.726Z,0.94
2023-01-23T06:01:54.407Z,0.96
2023-01-23T06:02:27.130Z,0.94
2023-01-23T06:02:59.800Z,0.94
2023-01-23T06:03:32.536Z,0.93
2023-01-23T06:04:03.560Z,0.93
2023-01-23T06:04:36.236Z,0.91
2023-01-23T06:05:08.954Z,0.94
2023-01-23T06:05:41.606Z,0.91
2023-01-23T06:06:14.282Z,0.93
2023-01-23T06:06:46.940Z,0.93
2023-01-23T06:07:19.637Z,0.93
2023-01-23T06:07:52.295Z,0.93
2023-01-23T06:08:24.958Z,0.91
2023-01-23T06:08:57.628Z,0.93
2023-01-23T06:09:30.293Z,0.90
2023-01-23T06:10:02.965Z,0.91
2023-01-23T06:10:35.649Z,0.93
2023-01-23T06:11:08.304Z,0.91
2023-01-23T06:11:41.091Z,0.94
2023-01-23T06:12:13.748Z,0.93
2023-01-23T06:12:46.400Z,0.94
2023-01-23T06:13:19.080Z,0.94
2023-01-23T06:13:51.763Z,0.94
2023-01-23T06:14:24.421Z,0.96
2023-01-23T06:14:55.532Z,0.97
2023-01-23T06:15:28.265Z,0.97
2023-01-23T06:16:00.977Z,0.97
2023-01-23T06:16:33.619Z,0.98
2023-01-23T06:17:06.295Z,1.00
2023-01-23T06:17:37.478Z,1.00
2023-01-23T06:18:10.187Z,1.04
2023-01-23T06:18:42.888Z,1.02
2023-01-23T06:19:15.549Z,1.05
2023-01-23T06:19:48.230Z,1.05
2023-01-23T06:20:21.295Z,1.05
2023-01-23T06:20:47.664Z,1.05
2023-01-23T06:21:20.368Z,1.06
2023-01-23T06:21:53.067Z,1.05
2023-01-23T06:22:25.740Z,1.04
2023-01-23T06:22:58.409Z,1.05
2023-01-23T06:23:31.074Z,1.04
2023-01-23T06:24:03.750Z,1.02
2023-01-23T06:24:36.426Z,1.00
2023-01-23T06:25:09.122Z,0.98
2023-01-23T06:25:41.784Z,0.98
2023-01-23T06:26:09.663Z,0.97
2023-01-23T06:26:42.333Z,0.98
2023-01-23T06:27:15.135Z,0.98
2023-01-23T06:27:47.767Z,0.98
2023-01-23T06:28:20.442Z,0.97
2023-01-23T06:28:53.130Z,0.97
2023-01-23T06:29:25.812Z,0.98
2023-01-23T06:29:58.485Z,1.00
2023-01-23T06:30:31.182Z,0.98
2023-01-23T06:31:04.130Z,1.00
2023-01-23T06:31:30.614Z,1.00
2023-01-23T06:32:03.353Z,0.97
2023-01-23T06:32:36.014Z,0.98
2023-01-23T06:33:08.688Z,0.97
2023-01-23T06:33:41.403Z,0.97
2023-01-23T06:34:14.106Z,0.94
2023-01-23T06:34:46.785Z,0.94
2023-01-23T06:35:19.754Z,0.94
2023-01-23T06:35:46.062Z,0.94
2023-01-23T06:36:17.153Z,0.94
2023-01-23T06:36:49.851Z,0.93
2023-01-23T06:37:22.528Z,0.94
2023-01-23T06:37:55.186Z,0.94
2023-01-23T06:38:27.850Z,0.96
2023-01-23T06:39:00.521Z,0.96
2023-01-23T06:39:33.189Z,0.97
2023-01-23T06:40:05.907Z,0.97
2023-01-23T06:40:38.586Z,0.97
2023-01-23T06:41:11.253Z,0.96
2023-01-23T06:41:43.936Z,0.94
2023-01-23T06:42:16.617Z,0.94
2023-01-23T06:42:49.400Z,0.94
2023-01-23T06:43:22.018Z,0.94
2023-01-23T06:43:54.699Z,0.93
2023-01-23T06:44:27.394Z,0.93
2023-01-23T06:45:00.046Z,0.93
2023-01-23T06:45:32.704Z,0.93
2023-01-23T06:46:02.208Z,0.93
2023-01-23T06:46:28.475Z,0.94
2023-01-23T06:47:01.174Z,0.90
2023-01-23T06:47:33.862Z,0.91
2023-01-23T06:48:06.521Z,0.90
2023-01-23T06:48:39.197Z,0.91
2023-01-23T06:49:06.578Z,0.91
2023-01-23T06:49:39.270Z,0.90
2023-01-23T06:50:11.933Z,0.90
2023-01-23T06:50:44.607Z,0.87
2023-01-23T06:51:17.326Z,0.87
2023-01-23T06:51:51.755Z,0.86
2023-01-23T06:53:29.152Z,0.87
2023-01-23T06:54:01.820Z,0.83
2023-01-23T06:54:34.491Z,0.84
2023-01-23T06:55:07.200Z,0.86
2023-01-23T06:55:39.871Z,0.86
2023-01-23T06:56:12.555Z,0.86
2023-01-23T06:56:45.253Z,0.84
2023-01-23T06:57:17.940Z,0.86
2023-01-23T06:57:50.599Z,0.86
2023-01-23T06:58:23.389Z,0.87
2023-01-23T06:58:56.033Z,0.90
2023-01-23T06:59:28.719Z,0.88
2023-01-23T07:00:01.388Z,0.90
2023-01-23T07:00:34.095Z,0.88
2023-01-23T07:01:06.799Z,0.86
2023-01-23T07:01:42.790Z,0.86
2023-01-23T07:02:09.758Z,0.86
2023-01-23T07:02:35.367Z,0.87
2023-01-23T07:03:01.577Z,0.84
2023-01-23T07:03:34.227Z,0.86
2023-01-23T07:04:06.884Z,0.84
2023-01-23T07:04:39.551Z,0.84
2023-01-23T07:05:12.221Z,0.87
2023-01-23T07:05:44.895Z,0.87
2023-01-23T07:06:17.599Z,0.86
2023-01-23T07:06:50.283Z,0.83
2023-01-23T07:07:22.985Z,0.83
2023-01-23T07:07:55.669Z,0.83
2023-01-23T07:08:28.318Z,0.84
2023-01-23T07:09:00.984Z,0.84
2023-01-23T07:09:33.662Z,0.84
2023-01-23T07:10:06.338Z,0.86
2023-01-23T07:10:39.001Z,0.86
2023-01-23T07:11:11.683Z,0.87
2023-01-23T07:11:44.345Z,0.87
2023-01-23T07:12:17.030Z,0.87
2023-01-23T07:12:49.700Z,0.86
2023-01-23T07:13:22.370Z,0.80
2023-01-23T07:13:55.146Z,0.86